sensor_id;sensor_type;location;lat;lon;timestamp;P1;durP1;ratioP1;P2;durP2;ratioP2
14078;SDS011;7115;50.150;8.568;2023-04-16T00:01:37;6.40;;;4.63;;
14078;SDS011;7115;50.150;8.568;2023-04-16T00:04:04;6.93;;;4.83;;
14078;SDS011;7115;50.150;8.568;2023-04-16T00:06:31;6.90;;;5.10;;
14078;SDS011;7115;50.150;8.568;2023-04-16T00:08:58;8.20;;;5.10;;
14078;SDS011;7115;50.150;8.568;2023-04-16T00:11:25;7.97;;;5.23;;
14078;SDS011;7115;50.150;8.568;2023-04-16T00:13:52;6.70;;;5.40;;
14078;SDS011;7115;50.150;8.568;2023-04-16T00:16:20;10.93;;;5.50;;
14078;SDS011;7115;50.150;8.568;2023-04-16T00:18:47;7.93;;;5.30;;
14078;SDS011;7115;50.150;8.568;2023-04-16T00:21:14;8.07;;;5.27;;
14078;SDS011;7115;50.150;8.568;2023-04-16T00:23:41;5.57;;;4.97;;
14078;SDS011;7115;50.150;8.568;2023-04-16T00:26:07;7.63;;;4.97;;
14078;SDS011;7115;50.150;8.568;2023-04-16T00:28:34;6.93;;;5.00;;
14078;SDS011;7115;50.150;8.568;2023-04-16T00:31:01;5.90;;;4.37;;
14078;SDS011;7115;50.150;8.568;2023-04-16T00:33:30;7.00;;;5.13;;
14078;SDS011;7115;50.150;8.568;2023-04-16T00:35:57;11.30;;;5.40;;
14078;SDS011;7115;50.150;8.568;2023-04-16T00:38:24;7.03;;;5.17;;
14078;SDS011;7115;50.150;8.568;2023-04-16T00:40:55;6.93;;;4.13;;
14078;SDS011;7115;50.150;8.568;2023-04-16T00:43:24;8.47;;;4.93;;
14078;SDS011;7115;50.150;8.568;2023-04-16T00:45:52;5.53;;;4.33;;
14078;SDS011;7115;50.150;8.568;2023-04-16T00:48:21;7.10;;;4.47;;
14078;SDS011;7115;50.150;8.568;2023-04-16T00:50:49;13.93;;;5.77;;
14078;SDS011;7115;50.150;8.568;2023-04-16T00:53:16;7.00;;;5.03;;
14078;SDS011;7115;50.150;8.568;2023-04-16T00:55:43;6.07;;;4.80;;
14078;SDS011;7115;50.150;8.568;2023-04-16T00:58:11;8.67;;;5.43;;
14078;SDS011;7115;50.150;8.568;2023-04-16T01:00:37;6.00;;;4.50;;
14078;SDS011;7115;50.150;8.568;2023-04-16T01:03:04;5.73;;;4.50;;
14078;SDS011;7115;50.150;8.568;2023-04-16T01:05:32;6.00;;;4.63;;
14078;SDS011;7115;50.150;8.568;2023-04-16T01:08:00;6.30;;;4.60;;
14078;SDS011;7115;50.150;8.568;2023-04-16T01:10:27;8.43;;;5.10;;
14078;SDS011;7115;50.150;8.568;2023-04-16T01:12:54;8.03;;;5.13;;
14078;SDS011;7115;50.150;8.568;2023-04-16T01:15:21;9.00;;;5.50;;
14078;SDS011;7115;50.150;8.568;2023-04-16T01:17:48;7.87;;;5.10;;
14078;SDS011;7115;50.150;8.568;2023-04-16T01:20:15;6.17;;;4.73;;
14078;SDS011;7115;50.150;8.568;2023-04-16T01:22:43;7.90;;;5.30;;
14078;SDS011;7115;50.150;8.568;2023-04-16T01:25:12;7.60;;;5.40;;
14078;SDS011;7115;50.150;8.568;2023-04-16T01:27:41;7.87;;;5.17;;
14078;SDS011;7115;50.150;8.568;2023-04-16T01:30:08;8.30;;;5.17;;
14078;SDS011;7115;50.150;8.568;2023-04-16T01:32:35;8.53;;;5.93;;
14078;SDS011;7115;50.150;8.568;2023-04-16T01:35:02;7.17;;;5.30;;
14078;SDS011;7115;50.150;8.568;2023-04-16T01:37:30;8.40;;;5.43;;
14078;SDS011;7115;50.150;8.568;2023-04-16T01:39:58;9.17;;;5.70;;
14078;SDS011;7115;50.150;8.568;2023-04-16T01:42:25;8.10;;;5.57;;
14078;SDS011;7115;50.150;8.568;2023-04-16T01:44:52;8.93;;;5.87;;
14078;SDS011;7115;50.150;8.568;2023-04-16T01:47:18;7.70;;;4.63;;
14078;SDS011;7115;50.150;8.568;2023-04-16T01:49:46;8.80;;;5.67;;
14078;SDS011;7115;50.150;8.568;2023-04-16T01:52:13;8.67;;;5.87;;
14078;SDS011;7115;50.150;8.568;2023-04-16T01:54:40;8.40;;;5.77;;
14078;SDS011;7115;50.150;8.568;2023-04-16T01:57:08;7.37;;;5.40;;
14078;SDS011;7115;50.150;8.568;2023-04-16T01:59:36;9.80;;;6.20;;
14078;SDS011;7115;50.150;8.568;2023-04-16T02:02:04;8.03;;;6.03;;
14078;SDS011;7115;50.150;8.568;2023-04-16T02:04:36;9.80;;;6.13;;
14078;SDS011;7115;50.150;8.568;2023-04-16T02:07:03;10.13;;;6.40;;
14078;SDS011;7115;50.150;8.568;2023-04-16T02:09:30;8.47;;;5.93;;
14078;SDS011;7115;50.150;8.568;2023-04-16T02:11:59;8.03;;;5.90;;
14078;SDS011;7115;50.150;8.568;2023-04-16T02:14:29;9.93;;;6.07;;
14078;SDS011;7115;50.150;8.568;2023-04-16T02:16:57;7.77;;;5.43;;
14078;SDS011;7115;50.150;8.568;2023-04-16T02:19:24;8.30;;;5.73;;
14078;SDS011;7115;50.150;8.568;2023-04-16T02:21:51;8.37;;;6.00;;
14078;SDS011;7115;50.150;8.568;2023-04-16T02:24:18;8.63;;;5.83;;
14078;SDS011;7115;50.150;8.568;2023-04-16T02:26:45;9.37;;;6.63;;
14078;SDS011;7115;50.150;8.568;2023-04-16T02:29:12;8.17;;;6.57;;
14078;SDS011;7115;50.150;8.568;2023-04-16T02:31:41;9.73;;;6.03;;
14078;SDS011;7115;50.150;8.568;2023-04-16T02:34:08;8.23;;;5.80;;
14078;SDS011;7115;50.150;8.568;2023-04-16T02:36:35;9.80;;;6.87;;
14078;SDS011;7115;50.150;8.568;2023-04-16T02:39:02;7.67;;;5.97;;
14078;SDS011;7115;50.150;8.568;2023-04-16T02:41:29;9.30;;;6.13;;
14078;SDS011;7115;50.150;8.568;2023-04-16T02:43:56;8.33;;;6.23;;
14078;SDS011;7115;50.150;8.568;2023-04-16T02:46:23;8.40;;;6.17;;
14078;SDS011;7115;50.150;8.568;2023-04-16T02:48:51;8.83;;;6.17;;
14078;SDS011;7115;50.150;8.568;2023-04-16T02:51:18;9.33;;;6.20;;
14078;SDS011;7115;50.150;8.568;2023-04-16T02:53:45;8.77;;;5.60;;
14078;SDS011;7115;50.150;8.568;2023-04-16T02:56:13;8.77;;;5.43;;
14078;SDS011;7115;50.150;8.568;2023-04-16T02:58:39;7.37;;;5.57;;
14078;SDS011;7115;50.150;8.568;2023-04-16T03:01:06;8.20;;;6.30;;
14078;SDS011;7115;50.150;8.568;2023-04-16T03:03:33;7.50;;;5.60;;
14078;SDS011;7115;50.150;8.568;2023-04-16T03:06:02;7.40;;;5.07;;
14078;SDS011;7115;50.150;8.568;2023-04-16T03:08:29;7.13;;;5.40;;
14078;SDS011;7115;50.150;8.568;2023-04-16T03:10:56;8.23;;;5.60;;
14078;SDS011;7115;50.150;8.568;2023-04-16T03:13:23;6.70;;;4.80;;
14078;SDS011;7115;50.150;8.568;2023-04-16T03:15:49;7.30;;;5.20;;
14078;SDS011;7115;50.150;8.568;2023-04-16T03:18:16;7.90;;;5.53;;
14078;SDS011;7115;50.150;8.568;2023-04-16T03:20:43;7.50;;;5.17;;
14078;SDS011;7115;50.150;8.568;2023-04-16T03:23:11;7.73;;;5.33;;
14078;SDS011;7115;50.150;8.568;2023-04-16T03:25:38;8.07;;;5.67;;
14078;SDS011;7115;50.150;8.568;2023-04-16T03:28:05;7.20;;;5.00;;
14078;SDS011;7115;50.150;8.568;2023-04-16T03:30:32;8.93;;;5.03;;
14078;SDS011;7115;50.150;8.568;2023-04-16T03:32:59;7.33;;;5.13;;
14078;SDS011;7115;50.150;8.568;2023-04-16T03:35:26;8.40;;;6.20;;
14078;SDS011;7115;50.150;8.568;2023-04-16T03:37:53;9.50;;;6.47;;
14078;SDS011;7115;50.150;8.568;2023-04-16T03:40:22;9.47;;;6.37;;
14078;SDS011;7115;50.150;8.568;2023-04-16T03:42:48;7.83;;;5.93;;
14078;SDS011;7115;50.150;8.568;2023-04-16T03:45:15;9.80;;;6.10;;
14078;SDS011;7115;50.150;8.568;2023-04-16T03:47:42;8.50;;;6.33;;
14078;SDS011;7115;50.150;8.568;2023-04-16T03:50:09;7.50;;;5.47;;
14078;SDS011;7115;50.150;8.568;2023-04-16T03:52:36;8.27;;;5.90;;
14078;SDS011;7115;50.150;8.568;2023-04-16T03:55:04;9.43;;;6.67;;
14078;SDS011;7115;50.150;8.568;2023-04-16T03:57:33;8.07;;;6.60;;
14078;SDS011;7115;50.150;8.568;2023-04-16T03:59:59;10.20;;;6.67;;
14078;SDS011;7115;50.150;8.568;2023-04-16T04:02:26;12.23;;;7.20;;
14078;SDS011;7115;50.150;8.568;2023-04-16T04:04:53;12.20;;;7.50;;
14078;SDS011;7115;50.150;8.568;2023-04-16T04:07:20;9.37;;;7.10;;
14078;SDS011;7115;50.150;8.568;2023-04-16T04:09:47;10.03;;;6.30;;
14078;SDS011;7115;50.150;8.568;2023-04-16T04:12:14;10.10;;;6.80;;
14078;SDS011;7115;50.150;8.568;2023-04-16T04:14:43;8.63;;;6.23;;
14078;SDS011;7115;50.150;8.568;2023-04-16T04:17:09;9.67;;;6.83;;
14078;SDS011;7115;50.150;8.568;2023-04-16T04:19:36;9.60;;;6.47;;
14078;SDS011;7115;50.150;8.568;2023-04-16T04:22:12;9.73;;;6.07;;
14078;SDS011;7115;50.150;8.568;2023-04-16T04:24:39;10.40;;;6.70;;
14078;SDS011;7115;50.150;8.568;2023-04-16T04:27:06;7.40;;;5.43;;
14078;SDS011;7115;50.150;8.568;2023-04-16T04:29:32;8.03;;;5.93;;
14078;SDS011;7115;50.150;8.568;2023-04-16T04:32:01;8.27;;;5.60;;
14078;SDS011;7115;50.150;8.568;2023-04-16T04:34:27;7.90;;;5.77;;
14078;SDS011;7115;50.150;8.568;2023-04-16T04:36:54;8.87;;;6.30;;
14078;SDS011;7115;50.150;8.568;2023-04-16T04:39:21;8.47;;;6.03;;
14078;SDS011;7115;50.150;8.568;2023-04-16T04:41:48;7.13;;;5.40;;
14078;SDS011;7115;50.150;8.568;2023-04-16T04:44:15;8.47;;;4.90;;
14078;SDS011;7115;50.150;8.568;2023-04-16T04:46:42;7.77;;;5.57;;
14078;SDS011;7115;50.150;8.568;2023-04-16T04:49:10;7.37;;;5.13;;
14078;SDS011;7115;50.150;8.568;2023-04-16T04:51:37;6.03;;;4.63;;
14078;SDS011;7115;50.150;8.568;2023-04-16T04:54:04;7.53;;;4.80;;
14078;SDS011;7115;50.150;8.568;2023-04-16T04:56:31;6.10;;;4.47;;
14078;SDS011;7115;50.150;8.568;2023-04-16T04:58:58;6.87;;;5.13;;
14078;SDS011;7115;50.150;8.568;2023-04-16T05:01:25;6.47;;;5.10;;
14078;SDS011;7115;50.150;8.568;2023-04-16T05:03:52;6.07;;;4.60;;
14078;SDS011;7115;50.150;8.568;2023-04-16T05:06:20;5.20;;;4.23;;
14078;SDS011;7115;50.150;8.568;2023-04-16T05:08:47;6.37;;;4.53;;
14078;SDS011;7115;50.150;8.568;2023-04-16T05:11:14;6.23;;;4.50;;
14078;SDS011;7115;50.150;8.568;2023-04-16T05:13:41;6.00;;;4.40;;
14078;SDS011;7115;50.150;8.568;2023-04-16T05:16:07;6.90;;;4.67;;
14078;SDS011;7115;50.150;8.568;2023-04-16T05:18:34;6.63;;;4.63;;
14078;SDS011;7115;50.150;8.568;2023-04-16T05:21:01;6.57;;;4.80;;
14078;SDS011;7115;50.150;8.568;2023-04-16T05:23:30;7.67;;;5.43;;
14078;SDS011;7115;50.150;8.568;2023-04-16T05:25:57;9.73;;;6.70;;
14078;SDS011;7115;50.150;8.568;2023-04-16T05:28:23;7.60;;;5.20;;
14078;SDS011;7115;50.150;8.568;2023-04-16T05:30:50;7.47;;;5.17;;
14078;SDS011;7115;50.150;8.568;2023-04-16T05:33:17;7.07;;;5.43;;
14078;SDS011;7115;50.150;8.568;2023-04-16T05:35:44;7.93;;;4.90;;
14078;SDS011;7115;50.150;8.568;2023-04-16T05:38:11;6.50;;;4.93;;
14078;SDS011;7115;50.150;8.568;2023-04-16T05:40:39;6.63;;;4.87;;
14078;SDS011;7115;50.150;8.568;2023-04-16T05:43:06;6.03;;;4.73;;
14078;SDS011;7115;50.150;8.568;2023-04-16T05:45:33;6.87;;;5.17;;
14078;SDS011;7115;50.150;8.568;2023-04-16T05:48:05;6.80;;;5.43;;
14078;SDS011;7115;50.150;8.568;2023-04-16T05:50:32;7.23;;;5.03;;
14078;SDS011;7115;50.150;8.568;2023-04-16T05:52:59;6.87;;;4.93;;
14078;SDS011;7115;50.150;8.568;2023-04-16T05:55:25;6.63;;;4.73;;
14078;SDS011;7115;50.150;8.568;2023-04-16T05:57:54;6.73;;;4.80;;
14078;SDS011;7115;50.150;8.568;2023-04-16T06:00:21;6.77;;;4.43;;
14078;SDS011;7115;50.150;8.568;2023-04-16T06:02:47;6.57;;;4.70;;
14078;SDS011;7115;50.150;8.568;2023-04-16T06:05:16;8.57;;;5.40;;
14078;SDS011;7115;50.150;8.568;2023-04-16T06:07:43;7.57;;;5.40;;
14078;SDS011;7115;50.150;8.568;2023-04-16T06:10:09;7.63;;;4.93;;
14078;SDS011;7115;50.150;8.568;2023-04-16T06:12:36;6.50;;;4.60;;
14078;SDS011;7115;50.150;8.568;2023-04-16T06:15:05;7.77;;;5.23;;
14078;SDS011;7115;50.150;8.568;2023-04-16T06:17:33;9.17;;;5.33;;
14078;SDS011;7115;50.150;8.568;2023-04-16T06:20:00;6.73;;;5.13;;
14078;SDS011;7115;50.150;8.568;2023-04-16T06:22:27;7.60;;;4.73;;
14078;SDS011;7115;50.150;8.568;2023-04-16T06:24:54;9.67;;;5.43;;
14078;SDS011;7115;50.150;8.568;2023-04-16T06:27:20;9.53;;;5.60;;
14078;SDS011;7115;50.150;8.568;2023-04-16T06:29:47;7.27;;;4.70;;
14078;SDS011;7115;50.150;8.568;2023-04-16T06:32:15;6.63;;;5.27;;
14078;SDS011;7115;50.150;8.568;2023-04-16T06:34:42;5.87;;;3.87;;
14078;SDS011;7115;50.150;8.568;2023-04-16T06:37:09;5.67;;;4.00;;
14078;SDS011;7115;50.150;8.568;2023-04-16T06:39:36;5.70;;;3.87;;
14078;SDS011;7115;50.150;8.568;2023-04-16T06:42:03;4.57;;;3.33;;
14078;SDS011;7115;50.150;8.568;2023-04-16T06:44:30;4.67;;;3.53;;
14078;SDS011;7115;50.150;8.568;2023-04-16T06:46:57;4.40;;;3.20;;
14078;SDS011;7115;50.150;8.568;2023-04-16T06:49:25;3.67;;;2.93;;
14078;SDS011;7115;50.150;8.568;2023-04-16T06:51:52;4.20;;;2.60;;
14078;SDS011;7115;50.150;8.568;2023-04-16T06:54:19;3.77;;;2.83;;
14078;SDS011;7115;50.150;8.568;2023-04-16T06:56:45;4.57;;;3.20;;
14078;SDS011;7115;50.150;8.568;2023-04-16T06:59:12;4.53;;;3.17;;
14078;SDS011;7115;50.150;8.568;2023-04-16T07:01:39;4.57;;;3.50;;
14078;SDS011;7115;50.150;8.568;2023-04-16T07:04:06;5.93;;;3.53;;
14078;SDS011;7115;50.150;8.568;2023-04-16T07:06:34;5.60;;;4.17;;
14078;SDS011;7115;50.150;8.568;2023-04-16T07:09:01;5.67;;;4.00;;
14078;SDS011;7115;50.150;8.568;2023-04-16T07:11:28;5.77;;;3.97;;
14078;SDS011;7115;50.150;8.568;2023-04-16T07:13:55;4.30;;;3.77;;
14078;SDS011;7115;50.150;8.568;2023-04-16T07:16:24;4.47;;;3.30;;
14078;SDS011;7115;50.150;8.568;2023-04-16T07:18:51;4.83;;;3.67;;
14078;SDS011;7115;50.150;8.568;2023-04-16T07:21:17;5.17;;;3.87;;
14078;SDS011;7115;50.150;8.568;2023-04-16T07:23:46;5.17;;;3.87;;
14078;SDS011;7115;50.150;8.568;2023-04-16T07:26:13;5.40;;;3.53;;
14078;SDS011;7115;50.150;8.568;2023-04-16T07:28:40;5.80;;;3.60;;
14078;SDS011;7115;50.150;8.568;2023-04-16T07:31:07;4.27;;;3.73;;
14078;SDS011;7115;50.150;8.568;2023-04-16T07:33:34;4.80;;;3.80;;
14078;SDS011;7115;50.150;8.568;2023-04-16T07:36:01;5.20;;;3.73;;
14078;SDS011;7115;50.150;8.568;2023-04-16T07:38:28;5.77;;;4.30;;
14078;SDS011;7115;50.150;8.568;2023-04-16T07:40:56;5.90;;;4.30;;
14078;SDS011;7115;50.150;8.568;2023-04-16T07:43:23;4.90;;;3.90;;
14078;SDS011;7115;50.150;8.568;2023-04-16T07:45:50;5.70;;;4.30;;
14078;SDS011;7115;50.150;8.568;2023-04-16T07:48:17;5.60;;;3.80;;
14078;SDS011;7115;50.150;8.568;2023-04-16T07:50:44;5.83;;;4.20;;
14078;SDS011;7115;50.150;8.568;2023-04-16T07:53:11;5.30;;;3.87;;
14078;SDS011;7115;50.150;8.568;2023-04-16T07:55:38;6.23;;;4.10;;
14078;SDS011;7115;50.150;8.568;2023-04-16T07:58:06;5.70;;;4.13;;
14078;SDS011;7115;50.150;8.568;2023-04-16T08:00:34;6.67;;;4.50;;
14078;SDS011;7115;50.150;8.568;2023-04-16T08:03:01;7.50;;;4.90;;
14078;SDS011;7115;50.150;8.568;2023-04-16T08:05:29;5.90;;;4.73;;
14078;SDS011;7115;50.150;8.568;2023-04-16T08:07:56;7.13;;;4.93;;
14078;SDS011;7115;50.150;8.568;2023-04-16T08:10:22;7.80;;;5.50;;
14078;SDS011;7115;50.150;8.568;2023-04-16T08:12:49;6.43;;;4.63;;
14078;SDS011;7115;50.150;8.568;2023-04-16T08:15:18;6.43;;;4.83;;
14078;SDS011;7115;50.150;8.568;2023-04-16T08:17:45;7.77;;;5.17;;
14078;SDS011;7115;50.150;8.568;2023-04-16T08:20:12;7.83;;;4.73;;
14078;SDS011;7115;50.150;8.568;2023-04-16T08:22:43;9.20;;;6.13;;
14078;SDS011;7115;50.150;8.568;2023-04-16T08:25:10;9.33;;;5.63;;
14078;SDS011;7115;50.150;8.568;2023-04-16T08:27:37;6.33;;;4.67;;
14078;SDS011;7115;50.150;8.568;2023-04-16T08:30:05;8.17;;;5.63;;
14078;SDS011;7115;50.150;8.568;2023-04-16T08:32:34;9.73;;;5.60;;
14078;SDS011;7115;50.150;8.568;2023-04-16T08:35:01;11.87;;;6.33;;
14078;SDS011;7115;50.150;8.568;2023-04-16T08:37:28;8.37;;;5.83;;
14078;SDS011;7115;50.150;8.568;2023-04-16T08:39:55;9.17;;;6.70;;
14078;SDS011;7115;50.150;8.568;2023-04-16T08:42:22;9.47;;;6.33;;
14078;SDS011;7115;50.150;8.568;2023-04-16T08:44:56;8.03;;;5.70;;
14078;SDS011;7115;50.150;8.568;2023-04-16T08:47:31;9.80;;;6.23;;
14078;SDS011;7115;50.150;8.568;2023-04-16T08:50:02;9.43;;;6.53;;
14078;SDS011;7115;50.150;8.568;2023-04-16T08:52:30;10.40;;;6.27;;
14078;SDS011;7115;50.150;8.568;2023-04-16T08:55:00;10.10;;;6.10;;
14078;SDS011;7115;50.150;8.568;2023-04-16T08:57:36;11.13;;;6.53;;
14078;SDS011;7115;50.150;8.568;2023-04-16T09:00:07;9.07;;;6.00;;
14078;SDS011;7115;50.150;8.568;2023-04-16T09:02:37;7.37;;;5.67;;
14078;SDS011;7115;50.150;8.568;2023-04-16T09:05:05;8.77;;;6.00;;
14078;SDS011;7115;50.150;8.568;2023-04-16T09:07:33;12.87;;;7.07;;
14078;SDS011;7115;50.150;8.568;2023-04-16T09:10:01;8.63;;;6.07;;
14078;SDS011;7115;50.150;8.568;2023-04-16T09:12:28;8.27;;;6.00;;
14078;SDS011;7115;50.150;8.568;2023-04-16T09:14:56;10.43;;;6.60;;
14078;SDS011;7115;50.150;8.568;2023-04-16T09:17:24;10.47;;;6.53;;
14078;SDS011;7115;50.150;8.568;2023-04-16T09:19:53;9.13;;;5.80;;
14078;SDS011;7115;50.150;8.568;2023-04-16T09:22:20;9.30;;;6.27;;
14078;SDS011;7115;50.150;8.568;2023-04-16T09:24:47;8.50;;;6.07;;
14078;SDS011;7115;50.150;8.568;2023-04-16T09:27:14;8.80;;;6.17;;
14078;SDS011;7115;50.150;8.568;2023-04-16T09:29:42;10.07;;;6.37;;
14078;SDS011;7115;50.150;8.568;2023-04-16T09:32:09;9.33;;;6.13;;
14078;SDS011;7115;50.150;8.568;2023-04-16T09:37:31;9.87;;;6.50;;
14078;SDS011;7115;50.150;8.568;2023-04-16T09:39:59;8.20;;;6.10;;
14078;SDS011;7115;50.150;8.568;2023-04-16T09:42:27;10.17;;;6.13;;
14078;SDS011;7115;50.150;8.568;2023-04-16T09:44:55;8.77;;;5.97;;
14078;SDS011;7115;50.150;8.568;2023-04-16T09:47:26;7.10;;;5.60;;
14078;SDS011;7115;50.150;8.568;2023-04-16T09:50:04;7.33;;;5.53;;
14078;SDS011;7115;50.150;8.568;2023-04-16T09:52:35;7.87;;;5.63;;
14078;SDS011;7115;50.150;8.568;2023-04-16T09:55:04;7.17;;;5.47;;
14078;SDS011;7115;50.150;8.568;2023-04-16T09:57:31;8.70;;;5.90;;
14078;SDS011;7115;50.150;8.568;2023-04-16T10:00:00;7.90;;;6.23;;
14078;SDS011;7115;50.150;8.568;2023-04-16T10:02:29;9.43;;;5.27;;
14078;SDS011;7115;50.150;8.568;2023-04-16T10:04:56;8.17;;;5.33;;
14078;SDS011;7115;50.150;8.568;2023-04-16T10:07:27;8.93;;;6.10;;
14078;SDS011;7115;50.150;8.568;2023-04-16T10:09:56;9.70;;;5.70;;
14078;SDS011;7115;50.150;8.568;2023-04-16T10:12:23;10.17;;;5.40;;
14078;SDS011;7115;50.150;8.568;2023-04-16T10:14:50;8.97;;;5.70;;
14078;SDS011;7115;50.150;8.568;2023-04-16T10:17:17;10.07;;;5.83;;
14078;SDS011;7115;50.150;8.568;2023-04-16T10:19:45;8.43;;;6.47;;
14078;SDS011;7115;50.150;8.568;2023-04-16T10:22:12;9.20;;;6.40;;
14078;SDS011;7115;50.150;8.568;2023-04-16T10:24:39;8.70;;;6.07;;
14078;SDS011;7115;50.150;8.568;2023-04-16T10:27:09;7.83;;;5.53;;
14078;SDS011;7115;50.150;8.568;2023-04-16T10:29:36;10.10;;;6.10;;
14078;SDS011;7115;50.150;8.568;2023-04-16T10:32:04;9.60;;;6.43;;
14078;SDS011;7115;50.150;8.568;2023-04-16T10:34:32;9.40;;;6.33;;
14078;SDS011;7115;50.150;8.568;2023-04-16T10:37:00;7.73;;;5.73;;
14078;SDS011;7115;50.150;8.568;2023-04-16T10:39:27;9.83;;;6.37;;
14078;SDS011;7115;50.150;8.568;2023-04-16T10:42:06;9.80;;;6.53;;
14078;SDS011;7115;50.150;8.568;2023-04-16T10:44:35;8.27;;;5.93;;
14078;SDS011;7115;50.150;8.568;2023-04-16T10:47:08;10.73;;;6.93;;
14078;SDS011;7115;50.150;8.568;2023-04-16T10:49:36;9.57;;;5.80;;
14078;SDS011;7115;50.150;8.568;2023-04-16T10:52:07;9.53;;;6.57;;
14078;SDS011;7115;50.150;8.568;2023-04-16T10:54:36;9.03;;;6.87;;
14078;SDS011;7115;50.150;8.568;2023-04-16T10:57:05;9.70;;;5.87;;
14078;SDS011;7115;50.150;8.568;2023-04-16T10:59:35;10.97;;;7.10;;
14078;SDS011;7115;50.150;8.568;2023-04-16T11:02:05;8.53;;;6.53;;
14078;SDS011;7115;50.150;8.568;2023-04-16T11:04:34;14.27;;;9.03;;
14078;SDS011;7115;50.150;8.568;2023-04-16T11:07:03;10.13;;;6.80;;
14078;SDS011;7115;50.150;8.568;2023-04-16T11:09:41;8.43;;;6.50;;
14078;SDS011;7115;50.150;8.568;2023-04-16T11:12:13;8.47;;;6.23;;
14078;SDS011;7115;50.150;8.568;2023-04-16T11:14:43;9.43;;;6.50;;
14078;SDS011;7115;50.150;8.568;2023-04-16T11:17:13;9.80;;;7.17;;
14078;SDS011;7115;50.150;8.568;2023-04-16T11:19:40;8.63;;;6.20;;
14078;SDS011;7115;50.150;8.568;2023-04-16T11:22:08;9.27;;;6.20;;
14078;SDS011;7115;50.150;8.568;2023-04-16T11:24:38;9.73;;;6.30;;
14078;SDS011;7115;50.150;8.568;2023-04-16T11:27:06;8.80;;;5.73;;
14078;SDS011;7115;50.150;8.568;2023-04-16T11:29:33;10.10;;;6.23;;
14078;SDS011;7115;50.150;8.568;2023-04-16T11:32:01;7.60;;;6.13;;
14078;SDS011;7115;50.150;8.568;2023-04-16T11:34:28;10.97;;;6.50;;
14078;SDS011;7115;50.150;8.568;2023-04-16T11:36:55;12.20;;;7.40;;
14078;SDS011;7115;50.150;8.568;2023-04-16T11:39:22;13.60;;;7.40;;
14078;SDS011;7115;50.150;8.568;2023-04-16T11:41:49;9.97;;;6.73;;
14078;SDS011;7115;50.150;8.568;2023-04-16T11:44:21;9.97;;;6.93;;
14078;SDS011;7115;50.150;8.568;2023-04-16T11:46:49;9.87;;;6.43;;
14078;SDS011;7115;50.150;8.568;2023-04-16T11:49:26;10.37;;;7.30;;
14078;SDS011;7115;50.150;8.568;2023-04-16T11:51:54;10.20;;;6.77;;
14078;SDS011;7115;50.150;8.568;2023-04-16T11:54:21;9.97;;;6.57;;
14078;SDS011;7115;50.150;8.568;2023-04-16T11:56:49;10.63;;;7.40;;
14078;SDS011;7115;50.150;8.568;2023-04-16T11:59:19;9.60;;;6.80;;
14078;SDS011;7115;50.150;8.568;2023-04-16T12:01:48;10.37;;;7.30;;
14078;SDS011;7115;50.150;8.568;2023-04-16T12:04:17;11.83;;;8.17;;
14078;SDS011;7115;50.150;8.568;2023-04-16T12:07:09;9.77;;;6.67;;
14078;SDS011;7115;50.150;8.568;2023-04-16T12:09:37;8.47;;;6.03;;
14078;SDS011;7115;50.150;8.568;2023-04-16T12:14:52;9.77;;;6.93;;
14078;SDS011;7115;50.150;8.568;2023-04-16T12:17:21;11.20;;;7.57;;
14078;SDS011;7115;50.150;8.568;2023-04-16T12:19:49;9.10;;;7.40;;
14078;SDS011;7115;50.150;8.568;2023-04-16T12:22:18;8.57;;;6.80;;
14078;SDS011;7115;50.150;8.568;2023-04-16T12:24:58;9.40;;;6.87;;
14078;SDS011;7115;50.150;8.568;2023-04-16T12:27:26;11.83;;;7.37;;
14078;SDS011;7115;50.150;8.568;2023-04-16T12:30:06;9.57;;;6.60;;
14078;SDS011;7115;50.150;8.568;2023-04-16T12:32:34;9.83;;;6.63;;
14078;SDS011;7115;50.150;8.568;2023-04-16T12:35:01;9.90;;;7.50;;
14078;SDS011;7115;50.150;8.568;2023-04-16T12:37:29;10.27;;;7.53;;
14078;SDS011;7115;50.150;8.568;2023-04-16T12:39:56;9.47;;;7.00;;
14078;SDS011;7115;50.150;8.568;2023-04-16T12:42:23;11.27;;;8.23;;
14078;SDS011;7115;50.150;8.568;2023-04-16T12:44:50;12.60;;;8.10;;
14078;SDS011;7115;50.150;8.568;2023-04-16T12:47:17;14.37;;;8.80;;
14078;SDS011;7115;50.150;8.568;2023-04-16T12:49:44;9.90;;;8.00;;
14078;SDS011;7115;50.150;8.568;2023-04-16T12:52:11;31.17;;;20.30;;
14078;SDS011;7115;50.150;8.568;2023-04-16T12:54:39;13.27;;;8.83;;
14078;SDS011;7115;50.150;8.568;2023-04-16T12:57:06;11.60;;;8.57;;
14078;SDS011;7115;50.150;8.568;2023-04-16T12:59:33;10.37;;;7.90;;
14078;SDS011;7115;50.150;8.568;2023-04-16T13:02:00;13.33;;;8.53;;
14078;SDS011;7115;50.150;8.568;2023-04-16T13:04:28;10.87;;;7.37;;
14078;SDS011;7115;50.150;8.568;2023-04-16T13:06:55;13.47;;;8.37;;
14078;SDS011;7115;50.150;8.568;2023-04-16T13:09:22;12.33;;;7.77;;
14078;SDS011;7115;50.150;8.568;2023-04-16T13:11:50;12.03;;;8.77;;
14078;SDS011;7115;50.150;8.568;2023-04-16T13:14:17;11.57;;;8.13;;
14078;SDS011;7115;50.150;8.568;2023-04-16T13:16:45;11.90;;;8.57;;
14078;SDS011;7115;50.150;8.568;2023-04-16T13:19:12;11.87;;;8.83;;
14078;SDS011;7115;50.150;8.568;2023-04-16T13:21:41;14.50;;;9.03;;
14078;SDS011;7115;50.150;8.568;2023-04-16T13:24:07;13.43;;;10.07;;
14078;SDS011;7115;50.150;8.568;2023-04-16T13:26:34;12.97;;;9.20;;
14078;SDS011;7115;50.150;8.568;2023-04-16T13:29:03;12.20;;;9.60;;
14078;SDS011;7115;50.150;8.568;2023-04-16T13:31:29;16.00;;;10.33;;
14078;SDS011;7115;50.150;8.568;2023-04-16T13:33:56;13.87;;;9.67;;
14078;SDS011;7115;50.150;8.568;2023-04-16T13:36:24;14.67;;;10.43;;
14078;SDS011;7115;50.150;8.568;2023-04-16T13:38:53;17.80;;;10.77;;
14078;SDS011;7115;50.150;8.568;2023-04-16T13:41:19;15.73;;;11.13;;
14078;SDS011;7115;50.150;8.568;2023-04-16T13:43:46;13.93;;;10.43;;
14078;SDS011;7115;50.150;8.568;2023-04-16T13:46:15;14.23;;;10.27;;
14078;SDS011;7115;50.150;8.568;2023-04-16T13:48:41;13.43;;;10.57;;
14078;SDS011;7115;50.150;8.568;2023-04-16T13:51:08;15.77;;;10.30;;
14078;SDS011;7115;50.150;8.568;2023-04-16T13:53:35;11.33;;;8.13;;
14078;SDS011;7115;50.150;8.568;2023-04-16T13:56:02;11.27;;;7.40;;
14078;SDS011;7115;50.150;8.568;2023-04-16T13:58:30;9.47;;;7.37;;
14078;SDS011;7115;50.150;8.568;2023-04-16T14:00:57;10.20;;;6.70;;
14078;SDS011;7115;50.150;8.568;2023-04-16T14:03:25;8.37;;;6.67;;
14078;SDS011;7115;50.150;8.568;2023-04-16T14:05:52;9.40;;;6.90;;
14078;SDS011;7115;50.150;8.568;2023-04-16T14:08:19;11.67;;;7.20;;
14078;SDS011;7115;50.150;8.568;2023-04-16T14:10:46;9.07;;;6.50;;
14078;SDS011;7115;50.150;8.568;2023-04-16T14:13:13;8.57;;;6.70;;
14078;SDS011;7115;50.150;8.568;2023-04-16T14:15:41;9.43;;;6.57;;
14078;SDS011;7115;50.150;8.568;2023-04-16T14:18:08;9.10;;;6.93;;
14078;SDS011;7115;50.150;8.568;2023-04-16T14:20:36;8.20;;;6.20;;
14078;SDS011;7115;50.150;8.568;2023-04-16T14:23:05;9.33;;;6.47;;
14078;SDS011;7115;50.150;8.568;2023-04-16T14:25:32;8.27;;;6.27;;
14078;SDS011;7115;50.150;8.568;2023-04-16T14:27:59;8.87;;;5.90;;
14078;SDS011;7115;50.150;8.568;2023-04-16T14:30:26;7.83;;;5.87;;
14078;SDS011;7115;50.150;8.568;2023-04-16T14:32:53;7.60;;;5.97;;
14078;SDS011;7115;50.150;8.568;2023-04-16T14:35:20;8.00;;;5.77;;
14078;SDS011;7115;50.150;8.568;2023-04-16T14:37:48;9.03;;;5.73;;
14078;SDS011;7115;50.150;8.568;2023-04-16T14:40:15;7.03;;;5.50;;
14078;SDS011;7115;50.150;8.568;2023-04-16T14:42:42;8.27;;;5.83;;
14078;SDS011;7115;50.150;8.568;2023-04-16T14:45:09;7.87;;;5.33;;
14078;SDS011;7115;50.150;8.568;2023-04-16T14:47:36;8.87;;;5.70;;
14078;SDS011;7115;50.150;8.568;2023-04-16T14:50:08;8.40;;;6.20;;
14078;SDS011;7115;50.150;8.568;2023-04-16T14:52:36;6.83;;;4.83;;
14078;SDS011;7115;50.150;8.568;2023-04-16T14:55:05;8.77;;;5.40;;
14078;SDS011;7115;50.150;8.568;2023-04-16T14:57:32;7.57;;;5.50;;
14078;SDS011;7115;50.150;8.568;2023-04-16T14:59:59;5.77;;;4.90;;
14078;SDS011;7115;50.150;8.568;2023-04-16T15:02:25;12.20;;;8.23;;
14078;SDS011;7115;50.150;8.568;2023-04-16T15:04:53;6.70;;;4.63;;
14078;SDS011;7115;50.150;8.568;2023-04-16T15:07:20;8.20;;;5.60;;